KMRT

Details ICAO KMRT
Name UNION CO
Region United States
Timezone America/New_York (UTC-5.0)
Plans Departing 5
Arriving 0
Stats Elevation 1,021 ft / 311 m (AMSL)
Location 40.224680° -83.351604°
Runways 1
Magnetic Variation 6.905° W
Sunrise 2017-12-10 12:46:39 UTC / 2017-12-10 07:46:39 Local
Sunset 2017-12-10 22:08:54 UTC / 2017-12-10 17:08:54 Local
Advertisement - Login to hide

Runways

ID Width Length Bearing (true) Bearing (mag) Surface Threshold Offset Overrun Length
09 75 ft / 23 m 4,209 ft / 1,283 m 82.97° 89.88° Asphalt 0 ft / 0 m 0 ft / 0 m
27 75 ft / 23 m 4,209 ft / 1,283 m 262.98° 269.89° Asphalt 124 ft / 38 m 0 ft / 0 m

Map

Weather


0- 5 10 15 20 25 30 35+ Temperature / ° C

Clouds and Precipitation
Forecast for 2017-12-11 00:00 UTC. Updated 32 minutes ago

Ground ~20,000 ft ~40,000 ft Winds

METAR

KMRT 102335Z AUTO 24006KT 10SM OVC046 M01/M06 A3000 RMK AO2 T10151059

TAF

Not found

Frequencies

Recorded 119.27 MHz AWOS 3
Approach 120.20 MHz COLUMBUS APP/DEP
Unicom 122.80 MHz CTAF/UNICOM
Warning: Do not use this data for real-world aviation or navigation. No guarantee of current accuracy is given.